createdAt,value
2023-02-21T00:02:42.042Z,47.31
2023-02-21T00:05:30.590Z,47.34
2023-02-21T00:08:19.036Z,47.14
2023-02-21T00:11:07.526Z,46.97
2023-02-21T00:13:56.328Z,47.37
2023-02-21T00:16:44.970Z,47.27
2023-02-21T00:19:33.804Z,47.55
2023-02-21T00:22:22.089Z,47.55
2023-02-21T00:25:10.416Z,47.86
2023-02-21T00:27:59.209Z,47.59
2023-02-21T00:30:47.846Z,47.66
2023-02-21T00:33:36.512Z,47.61
2023-02-21T00:36:25.113Z,47.68
2023-02-21T00:39:13.566Z,47.78
2023-02-21T00:42:02.100Z,47.52
2023-02-21T00:44:50.586Z,47.79
2023-02-21T00:47:39.000Z,47.86
2023-02-21T00:50:27.540Z,47.91
2023-02-21T00:53:16.075Z,47.94
2023-02-21T00:56:04.568Z,47.86
2023-02-21T00:58:53.195Z,48.06
2023-02-21T01:01:41.724Z,48.17
2023-02-21T01:04:30.401Z,48.26
2023-02-21T01:07:18.789Z,48.08
2023-02-21T01:10:07.229Z,48.36
2023-02-21T01:12:55.710Z,48.29
2023-02-21T01:15:43.873Z,48.34
2023-02-21T01:18:32.560Z,48.32
2023-02-21T01:21:21.115Z,48.50
2023-02-21T01:24:09.596Z,48.72
2023-02-21T01:26:58.111Z,48.85
2023-02-21T01:29:46.615Z,48.80
2023-02-21T01:32:35.090Z,48.92
2023-02-21T01:35:24.660Z,48.80
2023-02-21T01:38:13.366Z,49.14
2023-02-21T01:41:01.519Z,49.28
2023-02-21T01:43:49.986Z,49.26
2023-02-21T01:46:38.546Z,49.21
2023-02-21T01:49:27.833Z,49.35
2023-02-21T01:52:16.271Z,49.57
2023-02-21T01:55:05.112Z,49.44
2023-02-21T01:57:53.615Z,49.48
2023-02-21T02:00:42.048Z,49.76
2023-02-21T02:03:32.215Z,49.95
2023-02-21T02:06:20.863Z,49.87
2023-02-21T02:09:09.432Z,49.71
2023-02-21T02:12:09.862Z,50.10
2023-02-21T02:14:46.473Z,50.12
2023-02-21T02:17:19.974Z,50.03
2023-02-21T02:19:57.029Z,50.32
2023-02-21T02:22:38.238Z,49.97
2023-02-21T02:25:13.732Z,50.12
2023-02-21T02:27:50.573Z,50.49
2023-02-21T02:30:38.937Z,50.27
2023-02-21T02:33:23.474Z,50.32
2023-02-21T02:35:54.900Z,50.16
2023-02-21T02:38:27.268Z,50.22
2023-02-21T02:41:01.171Z,50.21
2023-02-21T02:43:32.625Z,50.49
2023-02-21T02:46:06.345Z,50.56
2023-02-21T02:48:37.982Z,50.76
2023-02-21T02:51:10.060Z,51.20
2023-02-21T02:53:40.884Z,51.22
2023-02-21T02:56:13.604Z,50.84
2023-02-21T02:58:46.408Z,50.85
2023-02-21T03:01:21.448Z,50.84
2023-02-21T03:03:56.707Z,50.97
2023-02-21T03:06:30.569Z,51.15
2023-02-21T03:09:04.578Z,51.29
2023-02-21T03:11:36.291Z,51.50
2023-02-21T03:14:07.639Z,51.34
2023-02-21T03:16:39.680Z,51.27
2023-02-21T03:19:12.362Z,51.65
2023-02-21T03:21:43.748Z,51.53
2023-02-21T03:24:15.307Z,51.66
2023-02-21T03:26:46.408Z,51.72
2023-02-21T03:29:17.268Z,51.53
2023-02-21T03:31:49.147Z,51.49
2023-02-21T03:34:20.177Z,51.77
2023-02-21T03:36:51.400Z,51.67
2023-02-21T03:39:22.293Z,51.96
2023-02-21T03:41:53.210Z,51.49
2023-02-21T03:44:24.307Z,51.77
2023-02-21T03:46:55.484Z,51.86
2023-02-21T03:49:26.668Z,52.17
2023-02-21T03:51:57.591Z,51.98
2023-02-21T03:54:28.600Z,52.19
2023-02-21T03:56:59.542Z,52.05
2023-02-21T03:59:30.574Z,51.93
2023-02-21T04:02:01.963Z,52.30
2023-02-21T04:04:32.971Z,51.84
2023-02-21T04:07:03.876Z,52.30
2023-02-21T04:09:34.970Z,52.13
2023-02-21T04:12:06.425Z,51.92
2023-02-21T04:14:37.570Z,52.33
2023-02-21T04:17:08.446Z,52.17
2023-02-21T04:19:39.320Z,52.22
2023-02-21T04:22:10.271Z,51.84
2023-02-21T04:24:41.395Z,52.38
2023-02-21T04:27:12.585Z,52.35
2023-02-21T04:29:43.633Z,52.17
2023-02-21T04:32:14.769Z,52.58
2023-02-21T04:34:45.976Z,52.51
2023-02-21T04:37:17.129Z,52.21
2023-02-21T04:39:48.276Z,52.53
2023-02-21T04:42:19.573Z,52.29
2023-02-21T04:44:59.699Z,52.60
2023-02-21T04:47:31.241Z,52.47
2023-02-21T04:50:02.343Z,52.60
2023-02-21T04:52:33.551Z,52.60
2023-02-21T04:55:04.573Z,52.80
2023-02-21T04:57:35.504Z,53.00
2023-02-21T05:00:08.210Z,52.73
2023-02-21T05:02:39.171Z,52.73
2023-02-21T05:05:10.560Z,52.76
2023-02-21T05:07:42.181Z,52.70
2023-02-21T05:10:13.140Z,52.77
2023-02-21T05:12:44.285Z,52.98
2023-02-21T05:15:15.657Z,52.99
2023-02-21T05:17:47.834Z,53.15
2023-02-21T05:20:18.962Z,53.09
2023-02-21T05:22:49.936Z,53.04
2023-02-21T05:25:21.437Z,53.02
2023-02-21T05:27:53.019Z,53.12
2023-02-21T05:30:25.545Z,52.99
2023-02-21T05:32:56.615Z,52.89
2023-02-21T05:35:27.509Z,53.53
2023-02-21T05:37:58.423Z,52.99
2023-02-21T05:40:29.453Z,53.21
2023-02-21T05:43:00.673Z,53.21
2023-02-21T05:45:31.545Z,53.38
2023-02-21T05:48:02.651Z,53.12
2023-02-21T05:50:33.584Z,53.38
2023-02-21T05:53:05.076Z,53.33
2023-02-21T05:55:36.280Z,53.35
2023-02-21T05:58:07.135Z,53.55
2023-02-21T06:00:38.328Z,53.42
2023-02-21T06:03:09.653Z,53.51
2023-02-21T06:05:41.180Z,53.43
2023-02-21T06:08:13.919Z,53.25
2023-02-21T06:10:44.937Z,53.43
2023-02-21T06:13:15.831Z,53.44
2023-02-21T06:15:46.964Z,53.43
2023-02-21T06:18:18.205Z,53.39
2023-02-21T06:20:49.164Z,53.45
2023-02-21T06:23:20.276Z,53.53
2023-02-21T06:25:51.201Z,53.27
2023-02-21T06:28:22.204Z,53.44
2023-02-21T06:30:53.388Z,53.65
2023-02-21T06:33:24.659Z,53.35
2023-02-21T06:35:55.651Z,53.47
2023-02-21T06:38:26.455Z,53.69
2023-02-21T06:40:57.424Z,53.52
2023-02-21T06:43:28.531Z,53.52
2023-02-21T06:45:59.581Z,53.53
2023-02-21T06:48:30.620Z,53.52
2023-02-21T06:51:01.515Z,53.61
2023-02-21T06:53:32.537Z,53.67
2023-02-21T06:56:03.489Z,53.61
2023-02-21T06:58:34.712Z,53.44
2023-02-21T07:01:05.781Z,53.51
2023-02-21T07:03:36.677Z,53.51
2023-02-21T07:06:08.094Z,53.48
2023-02-21T07:08:39.638Z,53.55
2023-02-21T07:11:13.490Z,53.46
2023-02-21T07:13:44.850Z,53.44
2023-02-21T07:16:18.230Z,53.52
2023-02-21T07:18:49.496Z,53.40
2023-02-21T07:21:20.560Z,53.47
2023-02-21T07:23:51.647Z,53.47
2023-02-21T07:26:22.536Z,53.43
2023-02-21T07:28:53.587Z,53.51
2023-02-21T07:31:24.570Z,53.50
2023-02-21T07:33:55.800Z,53.68
2023-02-21T07:36:27.209Z,53.51
2023-02-21T07:38:58.169Z,53.42
2023-02-21T07:41:29.423Z,53.36
2023-02-21T07:44:00.664Z,53.51
2023-02-21T07:46:31.787Z,53.38
2023-02-21T07:49:03.021Z,53.34
2023-02-21T07:51:33.983Z,53.34
2023-02-21T07:54:05.172Z,53.01
2023-02-21T07:56:36.420Z,53.17
2023-02-21T07:59:07.597Z,52.99
2023-02-21T08:01:39.117Z,53.14
2023-02-21T08:04:10.187Z,53.07
2023-02-21T08:06:41.354Z,53.01
2023-02-21T08:09:12.534Z,52.77
2023-02-21T08:11:43.572Z,52.94
2023-02-21T08:14:14.836Z,52.60
2023-02-21T08:16:46.384Z,52.59
2023-02-21T08:19:17.391Z,52.58
2023-02-21T08:21:48.471Z,52.43
2023-02-21T08:24:21.061Z,52.39
2023-02-21T08:26:52.392Z,52.20
2023-02-21T08:29:24.068Z,52.22
2023-02-21T08:31:55.090Z,51.99
2023-02-21T08:34:26.173Z,51.67
2023-02-21T08:36:57.585Z,51.63
2023-02-21T08:39:30.265Z,51.38
2023-02-21T08:42:01.321Z,51.44
2023-02-21T08:44:32.496Z,51.39
2023-02-21T08:47:03.515Z,51.25
2023-02-21T08:49:34.655Z,51.22
2023-02-21T08:52:06.188Z,50.98
2023-02-21T08:54:38.089Z,50.85
2023-02-21T08:57:09.538Z,50.73
2023-02-21T08:59:42.957Z,50.64
2023-02-21T09:02:18.412Z,50.61
2023-02-21T09:04:50.047Z,50.33
2023-02-21T09:07:21.501Z,50.28
2023-02-21T09:09:52.525Z,50.28
2023-02-21T09:12:24.344Z,50.09
2023-02-21T09:14:55.796Z,49.97
2023-02-21T09:17:26.786Z,49.93
2023-02-21T09:19:58.073Z,49.43
2023-02-21T09:22:28.950Z,49.61
2023-02-21T09:25:00.333Z,49.47
2023-02-21T09:27:41.468Z,49.36
2023-02-21T09:30:15.086Z,49.30
2023-02-21T09:32:46.045Z,49.42
2023-02-21T09:35:17.259Z,49.05
2023-02-21T09:37:48.229Z,48.81
2023-02-21T09:40:26.736Z,48.88
2023-02-21T09:42:58.367Z,48.96
2023-02-21T09:45:30.135Z,48.47
2023-02-21T09:48:01.687Z,48.62
2023-02-21T09:50:34.318Z,48.08
2023-02-21T09:53:05.488Z,48.28
2023-02-21T09:55:37.614Z,48.05
2023-02-21T09:58:10.375Z,48.02
2023-02-21T10:00:46.152Z,47.92
2023-02-21T10:03:22.779Z,47.68
2023-02-21T10:05:56.117Z,47.11
2023-02-21T10:08:30.617Z,47.12
2023-02-21T10:11:03.074Z,46.61
2023-02-21T10:13:36.286Z,46.73
2023-02-21T10:16:09.181Z,46.55
2023-02-21T10:18:42.121Z,46.13
2023-02-21T10:21:18.602Z,45.82
2023-02-21T10:23:50.777Z,44.99
2023-02-21T10:26:25.166Z,45.48
2023-02-21T10:28:57.233Z,44.97
2023-02-21T10:31:31.198Z,44.43
2023-02-21T10:34:02.996Z,44.33
2023-02-21T10:36:35.376Z,44.29
2023-02-21T10:39:08.832Z,43.80
2023-02-21T10:41:42.118Z,44.07
2023-02-21T10:44:14.526Z,42.83
2023-02-21T10:46:48.162Z,43.54
2023-02-21T10:49:22.835Z,43.21
2023-02-21T10:58:20.676Z,42.99
2023-02-21T11:00:51.443Z,42.61
2023-02-21T11:03:23.220Z,41.73
2023-02-21T11:05:54.401Z,41.87
2023-02-21T11:08:36.497Z,41.52
2023-02-21T11:11:07.615Z,41.51
2023-02-21T11:13:38.547Z,40.82
2023-02-21T11:16:13.459Z,40.62
2023-02-21T11:18:44.324Z,39.88
2023-02-21T11:21:16.365Z,40.81
2023-02-21T11:24:15.568Z,40.26
2023-02-21T11:27:06.442Z,40.68
2023-02-21T11:29:37.375Z,40.49
2023-02-21T11:32:14.747Z,40.71
2023-02-21T11:34:48.661Z,40.26
2023-02-21T11:37:19.655Z,40.50
2023-02-21T11:39:53.252Z,40.10
2023-02-21T11:42:29.065Z,39.06
2023-02-21T11:45:23.251Z,39.59
2023-02-21T11:47:56.575Z,39.51
2023-02-21T11:50:28.418Z,39.28
2023-02-21T11:53:01.425Z,38.97
2023-02-21T11:55:32.426Z,39.12
2023-02-21T11:58:09.260Z,39.25
2023-02-21T12:00:42.318Z,39.42
2023-02-21T12:03:22.025Z,38.88
2023-02-21T12:05:54.853Z,38.61
2023-02-21T12:08:35.248Z,38.26
2023-02-21T12:11:08.525Z,38.32
2023-02-21T12:13:41.534Z,37.97
2023-02-21T12:16:13.822Z,37.48
2023-02-21T12:18:49.464Z,37.32
2023-02-21T12:21:34.777Z,37.31
2023-02-21T12:24:07.928Z,37.75
2023-02-21T12:26:46.259Z,37.54
2023-02-21T12:29:21.686Z,37.51
2023-02-21T12:31:57.148Z,37.42
2023-02-21T12:34:32.073Z,36.64
2023-02-21T12:37:16.336Z,37.04
2023-02-21T12:39:51.272Z,36.61
2023-02-21T12:42:29.788Z,36.49
2023-02-21T12:45:04.360Z,36.72
2023-02-21T12:47:36.112Z,36.74
2023-02-21T12:50:07.628Z,36.45
2023-02-21T12:52:40.550Z,36.49
2023-02-21T12:55:14.384Z,36.33
2023-02-21T12:57:48.429Z,36.19
2023-02-21T13:00:20.096Z,36.33
2023-02-21T13:02:55.056Z,36.31
2023-02-21T13:05:28.125Z,35.59
2023-02-21T13:08:00.605Z,36.03
2023-02-21T13:10:32.297Z,35.79
2023-02-21T13:13:04.652Z,35.26
2023-02-21T13:15:35.496Z,35.17
2023-02-21T13:18:09.125Z,35.03
2023-02-21T13:20:40.787Z,35.43
2023-02-21T13:23:46.531Z,35.22
2023-02-21T13:26:21.958Z,35.05
2023-02-21T13:28:54.573Z,34.88
2023-02-21T13:31:27.171Z,35.14
2023-02-21T13:33:58.603Z,35.17
2023-02-21T13:36:30.488Z,35.11
2023-02-21T13:39:03.656Z,35.14
2023-02-21T13:41:37.378Z,34.93
2023-02-21T13:44:10.840Z,34.84
2023-02-21T13:47:08.194Z,34.88
2023-02-21T13:49:44.478Z,35.01
2023-02-21T13:52:26.614Z,34.99
2023-02-21T13:55:15.418Z,34.78
2023-02-21T13:57:47.223Z,34.91
2023-02-21T14:00:35.469Z,34.81
2023-02-21T14:03:18.346Z,34.90
2023-02-21T14:06:02.721Z,34.66
2023-02-21T14:08:33.730Z,34.92
2023-02-21T14:11:13.104Z,34.57
2023-02-21T14:13:48.308Z,34.24
2023-02-21T14:16:22.735Z,34.48
2023-02-21T14:18:56.056Z,34.39
2023-02-21T14:21:28.760Z,34.43
2023-02-21T14:24:00.908Z,34.13
2023-02-21T14:26:43.169Z,34.48
2023-02-21T14:29:30.328Z,34.29
2023-02-21T14:32:14.781Z,34.29
2023-02-21T14:34:54.336Z,34.28
2023-02-21T14:37:26.245Z,34.31
2023-02-21T14:39:58.209Z,34.14
2023-02-21T14:42:44.520Z,34.39
2023-02-21T14:45:24.090Z,34.18
2023-02-21T14:47:59.322Z,34.11
2023-02-21T14:50:36.061Z,34.01
2023-02-21T14:53:26.284Z,34.14
2023-02-21T14:56:09.898Z,33.97
2023-02-21T14:58:57.311Z,34.08
2023-02-21T15:01:34.875Z,34.16
2023-02-21T15:04:06.359Z,34.10
2023-02-21T15:06:37.186Z,33.97
2023-02-21T15:09:14.099Z,34.22
2023-02-21T15:11:44.971Z,34.11
2023-02-21T15:14:23.023Z,34.03
2023-02-21T15:16:54.930Z,33.95
2023-02-21T15:19:30.849Z,33.88
2023-02-21T15:22:24.831Z,33.93
2023-02-21T15:25:12.430Z,33.75
2023-02-21T15:27:55.335Z,33.88
2023-02-21T15:30:27.778Z,33.88
2023-02-21T15:33:00.500Z,33.98
2023-02-21T15:35:33.910Z,34.01
2023-02-21T15:38:05.510Z,33.95
2023-02-21T15:40:36.421Z,33.96
2023-02-21T15:43:07.300Z,33.96
2023-02-21T15:45:39.702Z,33.86
2023-02-21T15:48:10.536Z,33.90
2023-02-21T15:50:43.998Z,33.97
2023-02-21T15:53:19.048Z,33.82
2023-02-21T15:55:50.297Z,33.87
2023-02-21T15:58:22.907Z,33.86
2023-02-21T16:01:07.432Z,33.91
2023-02-21T16:03:39.370Z,33.90
2023-02-21T16:06:25.155Z,33.85
2023-02-21T16:09:02.124Z,33.90
2023-02-21T16:11:43.125Z,33.93
2023-02-21T16:14:20.683Z,33.86
2023-02-21T16:16:54.049Z,33.99
2023-02-21T16:19:24.714Z,34.01
2023-02-21T16:22:08.950Z,33.91
2023-02-21T16:24:41.270Z,33.88
2023-02-21T16:27:14.160Z,33.93
2023-02-21T16:29:45.238Z,33.93
2023-02-21T16:32:18.305Z,34.07
2023-02-21T16:34:49.019Z,33.92
2023-02-21T16:37:19.773Z,33.95
2023-02-21T16:39:50.524Z,33.90
2023-02-21T16:42:21.388Z,33.91
2023-02-21T16:44:52.184Z,33.98
2023-02-21T16:47:23.849Z,34.04
2023-02-21T16:49:54.893Z,34.10
2023-02-21T16:52:28.008Z,33.95
2023-02-21T16:55:00.253Z,34.00
2023-02-21T16:57:31.423Z,34.06
2023-02-21T17:00:02.474Z,34.08
2023-02-21T17:02:33.383Z,34.17
2023-02-21T17:05:04.281Z,34.12
2023-02-21T17:07:35.199Z,34.10
2023-02-21T17:10:06.146Z,34.05
2023-02-21T17:12:36.835Z,34.08
2023-02-21T17:15:08.410Z,34.12
2023-02-21T17:17:39.234Z,34.12
2023-02-21T17:20:12.061Z,34.18
2023-02-21T17:22:42.834Z,34.23
2023-02-21T17:25:13.685Z,34.27
2023-02-21T17:27:44.581Z,34.28
2023-02-21T17:30:16.572Z,34.34
2023-02-21T17:32:48.083Z,34.39
2023-02-21T17:35:19.542Z,34.41
2023-02-21T17:37:51.706Z,34.35
2023-02-21T17:40:23.102Z,34.43
2023-02-21T17:42:53.980Z,34.47
2023-02-21T17:45:24.823Z,34.44
2023-02-21T17:47:55.638Z,34.49
2023-02-21T17:50:26.807Z,34.49
2023-02-21T17:52:57.618Z,34.63
2023-02-21T17:55:29.147Z,34.60
2023-02-21T17:58:00.109Z,34.64
2023-02-21T18:00:35.323Z,34.77
2023-02-21T18:03:07.048Z,34.74
2023-02-21T18:05:37.928Z,34.83
2023-02-21T18:08:08.679Z,34.86
2023-02-21T18:10:39.598Z,34.95
2023-02-21T18:13:10.428Z,35.07
2023-02-21T18:15:41.809Z,34.93
2023-02-21T18:18:12.513Z,35.08
2023-02-21T18:20:44.077Z,35.13
2023-02-21T18:23:16.310Z,35.23
2023-02-21T18:25:47.279Z,35.25
2023-02-21T18:28:18.710Z,35.25
2023-02-21T18:30:51.660Z,35.24
2023-02-21T18:33:23.173Z,35.34
2023-02-21T18:35:54.749Z,35.24
2023-02-21T18:38:25.562Z,35.42
2023-02-21T18:41:00.465Z,35.44
2023-02-21T18:43:31.659Z,35.48
2023-02-21T18:46:02.786Z,35.65
2023-02-21T18:48:33.617Z,35.61
2023-02-21T18:51:04.797Z,35.62
2023-02-21T18:53:35.776Z,35.68
2023-02-21T18:56:08.212Z,35.67
2023-02-21T18:58:39.972Z,35.72
2023-02-21T19:01:12.356Z,35.88
2023-02-21T19:03:44.068Z,35.77
2023-02-21T19:06:16.177Z,35.86
2023-02-21T19:08:47.214Z,35.87
2023-02-21T19:11:18.460Z,36.01
2023-02-21T19:13:50.553Z,36.02
2023-02-21T19:16:22.750Z,36.09
2023-02-21T19:18:54.588Z,36.09
2023-02-21T19:21:26.641Z,36.18
2023-02-21T19:23:57.635Z,36.26
2023-02-21T19:26:30.759Z,36.24
2023-02-21T19:29:02.891Z,36.35
2023-02-21T19:31:33.964Z,36.42
2023-02-21T19:34:05.180Z,36.48
2023-02-21T19:36:39.018Z,36.49
2023-02-21T19:39:10.426Z,36.56
2023-02-21T19:41:42.240Z,36.56
2023-02-21T19:44:15.065Z,36.65
2023-02-21T19:46:45.793Z,36.78
2023-02-21T19:49:19.325Z,36.80
2023-02-21T19:51:51.784Z,36.90
2023-02-21T19:54:24.563Z,36.89
2023-02-21T19:56:56.967Z,36.97
2023-02-21T19:59:29.441Z,37.02
2023-02-21T20:02:00.852Z,37.08
2023-02-21T20:04:32.108Z,37.24
2023-02-21T20:07:02.808Z,37.13
2023-02-21T20:09:34.282Z,37.21
2023-02-21T20:12:05.234Z,37.31
2023-02-21T20:14:36.116Z,37.33
2023-02-21T20:17:07.643Z,37.39
2023-02-21T20:19:38.698Z,37.38
2023-02-21T20:22:09.672Z,37.37
2023-02-21T20:24:40.677Z,37.45
2023-02-21T20:27:11.542Z,37.47
2023-02-21T20:29:42.565Z,37.46
2023-02-21T20:32:15.811Z,37.51
2023-02-21T20:34:47.809Z,37.56
2023-02-21T20:37:19.490Z,37.67
2023-02-21T20:39:51.146Z,37.69
2023-02-21T20:42:25.056Z,37.85
2023-02-21T20:44:56.380Z,37.80
2023-02-21T20:47:29.280Z,37.89
2023-02-21T20:50:00.205Z,38.02
2023-02-21T20:52:31.669Z,38.08
2023-02-21T20:55:02.949Z,38.08
2023-02-21T20:57:35.329Z,38.26
2023-02-21T21:00:10.234Z,38.31
2023-02-21T21:02:42.411Z,38.38
2023-02-21T21:05:16.974Z,38.46
2023-02-21T21:07:48.603Z,38.52
2023-02-21T21:10:20.002Z,38.61
2023-02-21T21:12:51.639Z,38.60
2023-02-21T21:15:23.340Z,38.62
2023-02-21T21:17:55.440Z,38.67
2023-02-21T21:20:27.963Z,38.65
2023-02-21T21:22:59.645Z,38.81
2023-02-21T21:25:34.974Z,38.91
2023-02-21T21:28:06.700Z,38.98
2023-02-21T21:30:40.109Z,39.07
2023-02-21T21:33:11.418Z,39.05
2023-02-21T21:35:43.069Z,39.12
2023-02-21T21:38:16.036Z,39.19
2023-02-21T21:40:48.041Z,39.31
2023-02-21T21:43:19.193Z,39.21
2023-02-21T21:45:53.032Z,39.30
2023-02-21T21:48:24.952Z,39.41
2023-02-21T22:00:21.931Z,39.80
2023-02-21T22:02:57.437Z,39.81
2023-02-21T22:05:30.544Z,39.87
2023-02-21T22:08:01.518Z,39.94
2023-02-21T22:10:32.487Z,40.05
2023-02-21T22:13:10.000Z,40.13
2023-02-21T22:15:42.736Z,40.03
2023-02-21T22:18:13.868Z,40.18
2023-02-21T22:20:49.521Z,40.12
2023-02-21T22:23:24.312Z,40.29
2023-02-21T22:25:57.301Z,40.42
2023-02-21T22:28:28.178Z,40.36
2023-02-21T22:30:59.102Z,40.42
2023-02-21T22:33:29.861Z,40.52
2023-02-21T22:36:02.313Z,40.50
2023-02-21T22:38:33.142Z,40.73
2023-02-21T22:41:04.896Z,40.75
2023-02-21T22:43:35.862Z,40.77
2023-02-21T22:46:07.893Z,40.72
2023-02-21T22:48:40.232Z,40.73
2023-02-21T22:51:11.055Z,40.77
2023-02-21T22:53:43.743Z,40.88
2023-02-21T22:56:14.999Z,40.89
2023-02-21T22:58:46.301Z,40.98
2023-02-21T23:01:21.103Z,41.04
2023-02-21T23:03:51.850Z,41.04
2023-02-21T23:06:23.403Z,41.08
2023-02-21T23:08:54.270Z,41.15
2023-02-21T23:11:25.223Z,41.20
2023-02-21T23:13:57.582Z,41.24
2023-02-21T23:16:28.458Z,41.47
2023-02-21T23:18:59.354Z,41.47
2023-02-21T23:21:30.724Z,41.33
2023-02-21T23:24:01.592Z,41.36
2023-02-21T23:26:32.483Z,41.50
2023-02-21T23:29:03.449Z,41.61
2023-02-21T23:31:34.175Z,41.68
2023-02-21T23:34:05.053Z,41.73
2023-02-21T23:36:39.491Z,41.86
2023-02-21T23:39:10.781Z,41.87
2023-02-21T23:41:42.173Z,42.13
2023-02-21T23:44:13.609Z,42.02
2023-02-21T23:46:45.151Z,42.25
2023-02-21T23:49:16.606Z,42.12
2023-02-21T23:51:48.689Z,42.16
2023-02-21T23:54:21.266Z,42.27
2023-02-21T23:56:52.319Z,42.31
2023-02-21T23:59:23.122Z,42.42
